Terminal Aerodrome Forecast
Issued by NWS

Home | Current Version | Previous Version | Graphics & Text | Print | Product List | Glossary On
Versions: 1 2 3 4 5 6 7 8 9 10 11 12 13 14 15 16 17 18 19 20 21 22 23 24 25 26 27
000
FTUS43 KLSX 291835 AAA
TAFSUS
TAF AMD
KSUS 291835Z 2919/3018 11010G18KT P6SM VCTS BKN007 OVC012CB
      TEMPO 2919/2921 4SM -TSRA BR
     FM292100 13013KT 3SM TSRA BR OVC015CB
      TEMPO 2921/2924 VRB30KT 1 1/2SM TSRA BR OVC009CB
     FM300100 11014G21KT 3SM SHRA VCTS OVC025CB
     FM300300 13010KT 3SM -SHRA OVC015
     FM301500 16013G27KT 3SM SHRA VCTS OVC025CB=

USA.gov is the U.S. government's official web portal to all federal, state and local government web resources and services.